Time;durP1;ratioP1;P1;durP2;ratioP2;P2;SDS_P1;SDS_P2;PMS_P1;PMS_P2;Temp;Humidity;BMP_temperature;BMP_pressure;BME280_temperature;BME280_humidity;BME280_pressure;Samples;Min_cycle;Max_cycle;Signal;HPM_P1;HPM_P2
2021/08/28 00:59:12;;;;;;;2.65;2.00;;;;;;;;;;5017384;28;20053;-65
2021/08/28 01:01:42;;;;;;;4.20;2.00;;;;;;;;;;5011430;28;20049;-66
2021/08/28 01:04:11;;;;;;;2.60;1.92;;;;;;;;;;5011668;28;20495;-66
2021/08/28 01:06:40;;;;;;;2.42;1.80;;;;;;;;;;5013758;28;20095;-69
2021/08/28 01:09:11;;;;;;;5.20;2.00;;;;;;;;;;5014082;28;20069;-66
2021/08/28 01:12:00;;;;;;;2.50;1.70;;;;;;;;;;5014083;28;20065;-67
2021/08/28 01:14:28;;;;;;;2.42;1.80;;;;;;;;;;5005846;28;20041;-67
2021/08/28 01:17:06;;;;;;;2.85;1.75;;;;;;;;;;5014022;28;20092;-66
2021/08/28 01:19:44;;;;;;;2.55;2.00;;;;;;;;;;5014006;28;20066;-70
2021/08/28 01:22:12;;;;;;;2.50;1.80;;;;;;;;;;5013635;28;20038;-66
2021/08/28 01:24:39;;;;;;;2.78;2.00;;;;;;;;;;5013647;28;20033;-66
2021/08/28 01:27:07;;;;;;;5.10;2.10;;;;;;;;;;5013573;28;20183;-68
2021/08/28 01:29:34;;;;;;;2.65;1.63;;;;;;;;;;5013442;28;20030;-66
2021/08/28 01:32:01;;;;;;;3.17;1.80;;;;;;;;;;5013522;28;20038;-67
2021/08/28 01:34:28;;;;;;;3.15;1.92;;;;;;;;;;5013543;28;20029;-66
2021/08/28 01:36:55;;;;;;;4.20;1.73;;;;;;;;;;5013431;28;20379;-66
2021/08/28 01:39:21;;;;;;;2.90;1.90;;;;;;;;;;5013400;28;20037;-66
2021/08/28 01:41:49;;;;;;;2.58;1.77;;;;;;;;;;5013198;28;20041;-66
2021/08/28 01:44:16;;;;;;;2.60;1.80;;;;;;;;;;5013491;28;20434;-65
2021/08/28 01:46:42;;;;;;;2.90;2.00;;;;;;;;;;5013633;28;20072;-65
2021/08/28 01:49:09;;;;;;;2.60;1.70;;;;;;;;;;5013454;28;20423;-66
2021/08/28 01:51:35;;;;;;;3.63;2.00;;;;;;;;;;5013549;28;20064;-65
2021/08/28 01:54:01;;;;;;;2.92;2.00;;;;;;;;;;5013295;28;20065;-65
2021/08/28 01:56:27;;;;;;;5.43;1.90;;;;;;;;;;5013620;28;20080;-65
2021/08/28 01:58:57;;;;;;;2.83;1.90;;;;;;;;;;5013266;28;20062;-66
2021/08/28 02:01:23;;;;;;;3.20;1.83;;;;;;;;;;5013607;28;20119;-66
2021/08/28 02:03:49;;;;;;;2.25;1.63;;;;;;;;;;5013337;28;20479;-66
2021/08/28 02:06:23;;;;;;;3.70;1.80;;;;;;;;;;5012961;28;20120;-68
2021/08/28 02:08:55;;;;;;;2.67;1.83;;;;;;;;;;5013957;28;20046;-69
2021/08/28 02:11:24;;;;;;;3.72;1.80;;;;;;;;;;5013225;28;20087;-67
2021/08/28 02:13:54;;;;;;;3.53;1.98;;;;;;;;;;5013225;28;20510;-66
2021/08/28 02:16:22;;;;;;;3.42;1.70;;;;;;;;;;5013297;28;20390;-66
2021/08/28 02:18:59;;;;;;;3.17;1.95;;;;;;;;;;5013188;28;20483;-66
2021/08/28 02:21:27;;;;;;;2.92;1.90;;;;;;;;;;5013184;28;20037;-67
2021/08/28 02:24:12;;;;;;;2.45;1.90;;;;;;;;;;5013027;28;20034;-66
2021/08/28 02:26:45;;;;;;;3.13;1.90;;;;;;;;;;4995682;28;20046;-66
2021/08/28 02:29:17;;;;;;;3.92;1.90;;;;;;;;;;5013079;28;20113;-68
2021/08/28 02:31:45;;;;;;;3.00;2.10;;;;;;;;;;5013189;28;20042;-66
2021/08/28 02:34:12;;;;;;;3.55;2.00;;;;;;;;;;5012908;28;20034;-66
2021/08/28 02:36:41;;;;;;;2.65;1.88;;;;;;;;;;5013284;28;20061;-67
2021/08/28 02:39:08;;;;;;;4.00;2.00;;;;;;;;;;5012990;28;20049;-68
2021/08/28 02:41:34;;;;;;;3.13;1.90;;;;;;;;;;5012801;28;20030;-70
2021/08/28 02:44:01;;;;;;;3.88;2.10;;;;;;;;;;5012953;28;20041;-66
2021/08/28 02:46:28;;;;;;;4.90;1.70;;;;;;;;;;5012752;28;20042;-68
2021/08/28 02:48:55;;;;;;;3.08;1.90;;;;;;;;;;5013115;28;20034;-66
2021/08/28 02:51:22;;;;;;;3.17;1.85;;;;;;;;;;5012708;28;20487;-67
2021/08/28 02:53:49;;;;;;;3.30;1.73;;;;;;;;;;5012920;28;20034;-66
2021/08/28 02:56:15;;;;;;;3.78;1.83;;;;;;;;;;5016653;28;20084;-66
2021/08/28 02:58:43;;;;;;;2.53;1.77;;;;;;;;;;5016343;28;20053;-65
2021/08/28 03:01:09;;;;;;;5.03;1.80;;;;;;;;;;5016713;28;20060;-67
2021/08/28 03:03:35;;;;;;;2.85;1.73;;;;;;;;;;5016491;28;20069;-66
2021/08/28 03:06:02;;;;;;;4.40;1.70;;;;;;;;;;4998851;28;20484;-66
2021/08/28 03:08:28;;;;;;;1.85;1.42;;;;;;;;;;5016282;28;20121;-66
2021/08/28 03:10:54;;;;;;;3.95;1.98;;;;;;;;;;5016779;28;20390;-66
2021/08/28 03:13:21;;;;;;;2.50;1.73;;;;;;;;;;5016378;28;20034;-69
2021/08/28 03:15:48;;;;;;;2.70;1.60;;;;;;;;;;5016422;28;20585;-67
2021/08/28 03:18:16;;;;;;;2.17;1.65;;;;;;;;;;5016227;28;20106;-66
2021/08/28 03:20:43;;;;;;;2.28;1.52;;;;;;;;;;5016044;28;20049;-67
2021/08/28 03:23:11;;;;;;;2.88;1.52;;;;;;;;;;4998692;28;20537;-68
2021/08/28 03:25:38;;;;;;;2.20;1.50;;;;;;;;;;5016150;28;20109;-67
2021/08/28 03:28:04;;;;;;;2.65;1.80;;;;;;;;;;5016241;28;20046;-66
2021/08/28 03:30:30;;;;;;;2.83;1.60;;;;;;;;;;5015996;28;20037;-66
2021/08/28 03:32:57;;;;;;;2.20;1.27;;;;;;;;;;5016015;28;20095;-70
2021/08/28 03:35:24;;;;;;;1.95;1.38;;;;;;;;;;5016004;28;20041;-66
2021/08/28 03:37:51;;;;;;;3.65;2.00;;;;;;;;;;5015727;28;20076;-67
2021/08/28 03:40:18;;;;;;;2.35;1.60;;;;;;;;;;5016079;28;20034;-67
2021/08/28 03:42:44;;;;;;;5.68;1.70;;;;;;;;;;5016038;28;20090;-68
2021/08/28 03:45:10;;;;;;;3.80;1.90;;;;;;;;;;5015686;28;20049;-66
2021/08/28 03:47:37;;;;;;;3.50;1.50;;;;;;;;;;5015698;28;20069;-66
2021/08/28 03:50:04;;;;;;;2.28;1.70;;;;;;;;;;5015661;28;20172;-68
2021/08/28 03:52:30;;;;;;;2.97;1.60;;;;;;;;;;5015979;28;20030;-70
2021/08/28 03:54:56;;;;;;;2.47;1.77;;;;;;;;;;5015474;28;20041;-68
2021/08/28 03:57:22;;;;;;;8.15;2.13;;;;;;;;;;5015733;28;20038;-69
2021/08/28 03:59:48;;;;;;;3.75;1.48;;;;;;;;;;5015080;28;20100;-66
2021/08/28 04:02:14;;;;;;;6.47;1.63;;;;;;;;;;5015480;28;20418;-70
2021/08/28 04:04:40;;;;;;;2.25;1.40;;;;;;;;;;5015365;28;20038;-67
2021/08/28 04:07:06;;;;;;;2.67;1.45;;;;;;;;;;5015176;28;20042;-67
2021/08/28 04:09:32;;;;;;;3.13;1.58;;;;;;;;;;5015162;28;20037;-67
2021/08/28 04:11:58;;;;;;;2.53;1.50;;;;;;;;;;5015127;28;20034;-66
2021/08/28 04:14:24;;;;;;;2.13;1.23;;;;;;;;;;5015293;28;20037;-68
2021/08/28 04:16:50;;;;;;;3.00;1.70;;;;;;;;;;4997778;28;20387;-66
2021/08/28 04:19:16;;;;;;;2.65;1.42;;;;;;;;;;5015109;28;20104;-67
2021/08/28 04:21:42;;;;;;;3.42;1.45;;;;;;;;;;5015202;28;20037;-66
2021/08/28 04:24:08;;;;;;;4.03;1.50;;;;;;;;;;5014775;28;20116;-66
2021/08/28 04:26:34;;;;;;;2.38;1.50;;;;;;;;;;5015127;28;20086;-65
2021/08/28 04:29:01;;;;;;;2.65;1.67;;;;;;;;;;5014862;28;20072;-66
2021/08/28 04:31:27;;;;;;;2.22;1.50;;;;;;;;;;5015080;28;20030;-66
2021/08/28 04:33:53;;;;;;;2.60;1.73;;;;;;;;;;5014721;28;20038;-67
2021/08/28 04:36:19;;;;;;;3.42;1.77;;;;;;;;;;5014838;28;20164;-66
2021/08/28 04:38:45;;;;;;;2.05;1.55;;;;;;;;;;5014837;28;20037;-67
2021/08/28 04:41:11;;;;;;;2.53;1.63;;;;;;;;;;5014518;28;20028;-65
2021/08/28 04:43:37;;;;;;;4.28;1.60;;;;;;;;;;5014679;28;20486;-65
2021/08/28 04:46:03;;;;;;;2.85;1.58;;;;;;;;;;5014636;28;20041;-66
2021/08/28 04:48:31;;;;;;;4.63;1.55;;;;;;;;;;5014506;28;20048;-66
2021/08/28 04:50:57;;;;;;;3.90;1.70;;;;;;;;;;5014554;28;20054;-66
2021/08/28 04:53:23;;;;;;;1.95;1.55;;;;;;;;;;5014603;28;20045;-66
2021/08/28 04:55:49;;;;;;;3.40;1.73;;;;;;;;;;5014424;28;20041;-66
2021/08/28 04:58:15;;;;;;;3.05;1.50;;;;;;;;;;5014307;28;20057;-66
2021/08/28 05:00:41;;;;;;;2.55;1.55;;;;;;;;;;5014538;28;20033;-67
2021/08/28 05:03:08;;;;;;;3.53;1.90;;;;;;;;;;5013941;28;20133;-66
2021/08/28 05:05:34;;;;;;;2.00;1.60;;;;;;;;;;5014145;28;20050;-66
2021/08/28 05:08:00;;;;;;;5.05;1.80;;;;;;;;;;5014135;28;20084;-65
2021/08/28 05:10:27;;;;;;;2.58;1.73;;;;;;;;;;5014226;28;20077;-65
2021/08/28 05:12:53;;;;;;;3.25;1.90;;;;;;;;;;5014332;28;20030;-66
2021/08/28 05:15:19;;;;;;;2.28;1.60;;;;;;;;;;5014189;28;20038;-66
2021/08/28 05:17:45;;;;;;;4.40;1.70;;;;;;;;;;5013188;28;20040;-66
2021/08/28 05:20:11;;;;;;;3.90;1.60;;;;;;;;;;5013819;28;20040;-66
2021/08/28 05:22:37;;;;;;;3.10;1.42;;;;;;;;;;5014086;28;20385;-66
2021/08/28 05:25:04;;;;;;;10.52;2.58;;;;;;;;;;5014010;28;20092;-66
2021/08/28 05:27:30;;;;;;;4.38;1.60;;;;;;;;;;5013990;28;20038;-66
2021/08/28 05:29:56;;;;;;;3.50;1.85;;;;;;;;;;5013880;28;20025;-66
2021/08/28 05:32:22;;;;;;;2.40;1.80;;;;;;;;;;5013992;28;20040;-67
2021/08/28 05:34:49;;;;;;;3.42;1.67;;;;;;;;;;5013606;28;20105;-66
2021/08/28 05:37:15;;;;;;;4.05;1.65;;;;;;;;;;5013817;28;20049;-67
2021/08/28 05:39:41;;;;;;;3.08;2.13;;;;;;;;;;5013686;28;20111;-67
2021/08/28 05:42:07;;;;;;;2.97;1.65;;;;;;;;;;5013651;28;20115;-67
2021/08/28 05:44:33;;;;;;;2.85;1.63;;;;;;;;;;5013434;28;20117;-66
2021/08/28 05:46:59;;;;;;;4.50;1.80;;;;;;;;;;5013422;28;20124;-65
2021/08/28 05:49:25;;;;;;;3.90;1.90;;;;;;;;;;5013482;28;20057;-64
2021/08/28 05:51:51;;;;;;;2.80;1.70;;;;;;;;;;4995723;28;20034;-65
2021/08/28 05:54:17;;;;;;;5.60;1.90;;;;;;;;;;5013184;28;20037;-66
2021/08/28 05:56:43;;;;;;;3.53;1.85;;;;;;;;;;5013548;28;20109;-66
2021/08/28 05:59:09;;;;;;;5.25;2.08;;;;;;;;;;5013311;28;20080;-67
2021/08/28 06:01:35;;;;;;;2.78;1.80;;;;;;;;;;5013545;28;20087;-65
2021/08/28 06:04:01;;;;;;;2.95;1.85;;;;;;;;;;5013143;28;20092;-68
2021/08/28 06:06:27;;;;;;;2.45;1.67;;;;;;;;;;5013203;28;20113;-66
2021/08/28 06:08:53;;;;;;;2.45;1.50;;;;;;;;;;5013291;28;20166;-67
2021/08/28 06:11:23;;;;;;;2.17;1.50;;;;;;;;;;5013299;28;20038;-69
2021/08/28 06:13:49;;;;;;;2.40;1.50;;;;;;;;;;5013350;28;20442;-69
2021/08/28 06:16:15;;;;;;;3.92;1.38;;;;;;;;;;5013206;28;20041;-67
2021/08/28 06:18:41;;;;;;;4.53;1.73;;;;;;;;;;5012893;28;20513;-65
2021/08/28 06:21:07;;;;;;;3.88;1.65;;;;;;;;;;5012926;28;20498;-70
2021/08/28 06:23:33;;;;;;;3.05;1.85;;;;;;;;;;5013053;28;20054;-69
2021/08/28 06:25:59;;;;;;;5.85;1.75;;;;;;;;;;5012789;28;20454;-69
2021/08/28 06:28:25;;;;;;;6.40;1.77;;;;;;;;;;5014066;28;20042;-70
2021/08/28 06:30:51;;;;;;;2.90;1.75;;;;;;;;;;4999408;28;20446;-69
2021/08/28 06:33:17;;;;;;;4.60;1.83;;;;;;;;;;5017177;28;20038;-69
2021/08/28 06:35:43;;;;;;;4.18;1.50;;;;;;;;;;5017022;28;20088;-65
2021/08/28 06:38:09;;;;;;;2.38;1.58;;;;;;;;;;5016822;28;20739;-65
2021/08/28 06:40:35;;;;;;;2.88;1.48;;;;;;;;;;5016638;28;20070;-66
2021/08/28 06:43:01;;;;;;;2.78;1.60;;;;;;;;;;5016869;28;20042;-65
2021/08/28 06:45:28;;;;;;;4.68;1.60;;;;;;;;;;5016837;28;20513;-64
2021/08/28 06:47:54;;;;;;;3.25;1.50;;;;;;;;;;5016579;28;20050;-66
2021/08/28 06:50:20;;;;;;;2.88;1.35;;;;;;;;;;5016609;28;20065;-65
2021/08/28 06:52:46;;;;;;;4.78;1.25;;;;;;;;;;5016791;28;20049;-65
2021/08/28 06:55:12;;;;;;;4.55;1.70;;;;;;;;;;5016578;28;20390;-65
2021/08/28 06:57:38;;;;;;;1.58;1.30;;;;;;;;;;5016760;28;20052;-67
2021/08/28 07:00:04;;;;;;;4.72;1.30;;;;;;;;;;5016303;28;20041;-65
2021/08/28 07:02:30;;;;;;;3.97;1.20;;;;;;;;;;5016709;28;20121;-68
2021/08/28 07:04:56;;;;;;;2.15;1.20;;;;;;;;;;5016493;28;20050;-67
2021/08/28 07:07:22;;;;;;;2.10;1.30;;;;;;;;;;5016751;28;20546;-65
2021/08/28 07:09:48;;;;;;;2.22;1.30;;;;;;;;;;5016561;28;20505;-65
2021/08/28 07:12:14;;;;;;;2.13;1.30;;;;;;;;;;5016023;28;20029;-64
2021/08/28 07:14:43;;;;;;;4.05;1.42;;;;;;;;;;5016177;28;20030;-64
2021/08/28 07:17:09;;;;;;;3.50;1.50;;;;;;;;;;5016028;28;20045;-64
2021/08/28 07:19:35;;;;;;;1.88;1.27;;;;;;;;;;5016486;28;20030;-65
2021/08/28 07:22:01;;;;;;;2.15;1.20;;;;;;;;;;5016059;28;20041;-65
2021/08/28 07:24:27;;;;;;;1.48;1.10;;;;;;;;;;5015908;28;20045;-65
2021/08/28 07:26:53;;;;;;;1.90;1.17;;;;;;;;;;5016079;28;20046;-65
2021/08/28 07:29:20;;;;;;;2.58;1.13;;;;;;;;;;5015969;28;20125;-65
2021/08/28 07:31:46;;;;;;;2.20;1.20;;;;;;;;;;5016167;28;20076;-65
2021/08/28 07:34:12;;;;;;;1.50;1.10;;;;;;;;;;5015898;28;20038;-65
2021/08/28 07:36:38;;;;;;;4.30;1.10;;;;;;;;;;5015738;28;20061;-69
2021/08/28 07:39:04;;;;;;;2.58;1.38;;;;;;;;;;5015755;28;20058;-67
2021/08/28 07:41:31;;;;;;;2.40;1.08;;;;;;;;;;5015279;28;20042;-66
2021/08/28 07:43:57;;;;;;;2.78;0.90;;;;;;;;;;5015913;28;20348;-65
2021/08/28 07:46:23;;;;;;;1.77;1.10;;;;;;;;;;5015824;28;20052;-66
2021/08/28 07:48:49;;;;;;;2.15;1.25;;;;;;;;;;5015631;28;20109;-64
2021/08/28 07:51:15;;;;;;;4.40;1.88;;;;;;;;;;5015774;28;20474;-65
2021/08/28 07:53:41;;;;;;;3.95;1.30;;;;;;;;;;5015680;28;20088;-65
2021/08/28 07:56:07;;;;;;;1.48;1.00;;;;;;;;;;5016187;28;20363;-67
2021/08/28 07:58:33;;;;;;;1.27;0.90;;;;;;;;;;5015289;28;20071;-65
2021/08/28 08:00:59;;;;;;;2.55;1.25;;;;;;;;;;5015557;28;20089;-65
2021/08/28 08:03:25;;;;;;;1.85;0.82;;;;;;;;;;5015269;28;20037;-65
2021/08/28 08:05:51;;;;;;;1.33;0.95;;;;;;;;;;5015373;28;20054;-65
2021/08/28 08:08:17;;;;;;;1.40;0.85;;;;;;;;;;5015356;28;20045;-65
2021/08/28 08:10:43;;;;;;;2.13;0.93;;;;;;;;;;5015142;28;20080;-66
2021/08/28 08:13:09;;;;;;;1.77;0.95;;;;;;;;;;5015061;28;20033;-67
2021/08/28 08:15:35;;;;;;;2.75;1.10;;;;;;;;;;5015050;28;20436;-65
2021/08/28 08:18:01;;;;;;;1.63;0.88;;;;;;;;;;5015250;28;20386;-65
2021/08/28 08:20:28;;;;;;;1.90;1.35;;;;;;;;;;5014922;28;20037;-64
2021/08/28 08:22:54;;;;;;;1.40;0.88;;;;;;;;;;5015144;28;20038;-65
2021/08/28 08:25:20;;;;;;;2.40;1.00;;;;;;;;;;5015176;28;20037;-65
2021/08/28 08:27:46;;;;;;;4.82;1.13;;;;;;;;;;5014850;28;20395;-64
2021/08/28 08:30:12;;;;;;;3.33;1.40;;;;;;;;;;5014907;28;20034;-65
2021/08/28 08:32:38;;;;;;;1.90;1.10;;;;;;;;;;5014913;28;20030;-66
2021/08/28 08:35:04;;;;;;;1.98;1.17;;;;;;;;;;5015084;28;20034;-66
2021/08/28 08:37:30;;;;;;;2.30;1.10;;;;;;;;;;5014756;28;20390;-65
2021/08/28 08:39:56;;;;;;;2.20;1.15;;;;;;;;;;5014872;28;20029;-65
2021/08/28 08:42:27;;;;;;;2.53;1.35;;;;;;;;;;5014744;28;20041;-66
2021/08/28 08:44:53;;;;;;;1.40;0.95;;;;;;;;;;5014779;28;20026;-66
2021/08/28 08:47:19;;;;;;;1.33;1.00;;;;;;;;;;5014478;28;20042;-66
2021/08/28 08:49:46;;;;;;;1.23;0.90;;;;;;;;;;5014445;28;20022;-65
2021/08/28 08:52:12;;;;;;;2.90;0.90;;;;;;;;;;5013530;28;20034;-65
2021/08/28 08:54:38;;;;;;;2.40;1.23;;;;;;;;;;5014574;28;20068;-65
2021/08/28 08:57:05;;;;;;;1.80;1.00;;;;;;;;;;5014230;28;20049;-66
2021/08/28 08:59:31;;;;;;;9.73;1.60;;;;;;;;;;5014282;28;20069;-64
2021/08/28 09:01:57;;;;;;;3.75;1.02;;;;;;;;;;5014491;28;20172;-65
2021/08/28 09:04:23;;;;;;;2.67;1.30;;;;;;;;;;5014680;28;20065;-65
2021/08/28 09:06:50;;;;;;;2.70;1.35;;;;;;;;;;5014295;28;20128;-68
2021/08/28 09:09:16;;;;;;;2.60;1.20;;;;;;;;;;5014282;28;20069;-66
2021/08/28 09:11:57;;;;;;;1.67;1.00;;;;;;;;;;5014060;28;20045;-65
2021/08/28 09:14:30;;;;;;;1.42;1.02;;;;;;;;;;5131632;27;20303;-67
2021/08/28 09:16:56;;;;;;;8.10;1.60;;;;;;;;;;5131632;28;20031;-67
2021/08/28 09:19:42;;;;;;;8.95;1.50;;;;;;;;;;5131606;28;20113;-66
2021/08/28 09:22:19;;;;;;;1.77;1.15;;;;;;;;;;5131187;28;20080;-71
2021/08/28 09:24:45;;;;;;;1.42;1.10;;;;;;;;;;5131368;28;20029;-68
2021/08/28 09:27:11;;;;;;;2.03;1.20;;;;;;;;;;5131237;28;20035;-67
2021/08/28 09:29:42;;;;;;;2.20;1.15;;;;;;;;;;5131571;28;20023;-66
2021/08/28 09:32:08;;;;;;;1.92;1.10;;;;;;;;;;5131270;28;20031;-68
2021/08/28 09:34:34;;;;;;;2.05;1.30;;;;;;;;;;5131139;28;20491;-69
2021/08/28 09:37:01;;;;;;;2.65;1.27;;;;;;;;;;5131260;28;20055;-66
2021/08/28 09:39:40;;;;;;;1.45;1.08;;;;;;;;;;5131525;28;20016;-67
2021/08/28 09:42:06;;;;;;;2.47;1.33;;;;;;;;;;5131173;28;20031;-66
2021/08/28 09:44:36;;;;;;;2.42;1.20;;;;;;;;;;5131312;28;20023;-66
2021/08/28 09:47:10;;;;;;;1.50;0.98;;;;;;;;;;5131031;28;20503;-66
2021/08/28 09:49:36;;;;;;;2.03;1.00;;;;;;;;;;5130978;28;20020;-66
2021/08/28 09:52:02;;;;;;;1.85;1.13;;;;;;;;;;5130956;28;20027;-69
2021/08/28 09:54:28;;;;;;;2.45;1.20;;;;;;;;;;5131033;28;20031;-67
2021/08/28 09:57:01;;;;;;;1.27;0.90;;;;;;;;;;5131213;28;20024;-71
2021/08/28 09:59:27;;;;;;;1.60;0.90;;;;;;;;;;5130449;28;20061;-70
2021/08/28 10:01:53;;;;;;;1.45;1.10;;;;;;;;;;5130950;28;20474;-66
2021/08/28 10:04:19;;;;;;;2.38;1.05;;;;;;;;;;5130783;28;20050;-67
2021/08/28 10:06:46;;;;;;;1.40;0.90;;;;;;;;;;5130361;28;20023;-66
2021/08/28 10:09:16;;;;;;;1.77;1.08;;;;;;;;;;5130630;28;20027;-67
2021/08/28 10:11:45;;;;;;;2.28;1.25;;;;;;;;;;5131127;28;20106;-66
2021/08/28 10:14:14;;;;;;;2.20;0.95;;;;;;;;;;5130320;28;20043;-67
2021/08/28 10:16:40;;;;;;;2.88;1.08;;;;;;;;;;5130887;28;20110;-68
2021/08/28 10:19:07;;;;;;;2.90;1.10;;;;;;;;;;5130292;28;20030;-70
2021/08/28 10:21:35;;;;;;;1.98;1.23;;;;;;;;;;5130252;28;20051;-66
2021/08/28 10:24:01;;;;;;;1.80;1.20;;;;;;;;;;5127000;28;20030;-65
2021/08/28 10:26:27;;;;;;;1.60;1.25;;;;;;;;;;5116544;28;20047;-66
2021/08/28 10:28:53;;;;;;;2.47;1.17;;;;;;;;;;5116341;28;20023;-66
2021/08/28 10:31:20;;;;;;;1.55;1.05;;;;;;;;;;5116572;28;20043;-68
2021/08/28 10:33:46;;;;;;;2.13;1.30;;;;;;;;;;5116586;28;20040;-65
2021/08/28 10:36:12;;;;;;;1.73;1.15;;;;;;;;;;5116246;28;20016;-66
2021/08/28 10:38:39;;;;;;;4.28;1.38;;;;;;;;;;5116327;28;20034;-66
2021/08/28 10:41:05;;;;;;;2.30;1.00;;;;;;;;;;5116423;28;20103;-66
2021/08/28 10:43:31;;;;;;;1.83;1.05;;;;;;;;;;5116355;28;20108;-66
2021/08/28 10:45:57;;;;;;;1.75;1.35;;;;;;;;;;5116091;28;20045;-65
2021/08/28 10:48:23;;;;;;;1.60;1.05;;;;;;;;;;5116234;28;20532;-66
2021/08/28 10:50:53;;;;;;;1.85;1.33;;;;;;;;;;5116127;28;20020;-66
2021/08/28 10:53:20;;;;;;;1.65;1.20;;;;;;;;;;5116109;28;20491;-68
2021/08/28 10:55:47;;;;;;;1.88;1.25;;;;;;;;;;5115897;28;20028;-68
2021/08/28 10:58:20;;;;;;;2.50;1.45;;;;;;;;;;5116032;28;20420;-67
2021/08/28 11:00:48;;;;;;;2.22;1.52;;;;;;;;;;5115913;28;20093;-67
2021/08/28 11:03:23;;;;;;;2.60;1.55;;;;;;;;;;5115978;28;20383;-69
2021/08/28 11:06:09;;;;;;;2.63;1.40;;;;;;;;;;5115582;28;20023;-68
2021/08/28 11:08:48;;;;;;;4.22;1.88;;;;;;;;;;5115698;28;20471;-66
2021/08/28 11:11:19;;;;;;;3.03;1.80;;;;;;;;;;5115826;28;20030;-69
2021/08/28 11:14:04;;;;;;;1.83;1.40;;;;;;;;;;5115469;28;20054;-65
2021/08/28 11:16:42;;;;;;;4.53;1.65;;;;;;;;;;5115445;28;20031;-66
2021/08/28 11:19:12;;;;;;;4.63;1.45;;;;;;;;;;5115798;28;20016;-65
2021/08/28 11:21:41;;;;;;;2.03;1.30;;;;;;;;;;5115652;28;20364;-66
2021/08/28 11:24:14;;;;;;;5.20;1.00;;;;;;;;;;5115329;28;20023;-66
2021/08/28 11:26:41;;;;;;;1.33;1.23;;;;;;;;;;5115396;28;20370;-66
2021/08/28 11:29:21;;;;;;;1.55;1.35;;;;;;;;;;5115355;28;20388;-67
2021/08/28 11:32:05;;;;;;;1.65;1.10;;;;;;;;;;5115249;28;20043;-67
2021/08/28 11:34:31;;;;;;;2.72;1.20;;;;;;;;;;5115351;28;20032;-67
2021/08/28 11:37:15;;;;;;;1.83;1.00;;;;;;;;;;5114699;28;20456;-66
2021/08/28 11:39:45;;;;;;;3.15;1.17;;;;;;;;;;5114892;28;20043;-66
2021/08/28 11:42:11;;;;;;;1.40;1.10;;;;;;;;;;5115278;28;20027;-66
2021/08/28 11:44:38;;;;;;;1.52;0.98;;;;;;;;;;5115122;28;20099;-66
2021/08/28 11:47:04;;;;;;;1.95;1.02;;;;;;;;;;5115157;28;20540;-66
2021/08/28 11:49:32;;;;;;;2.25;1.10;;;;;;;;;;5114951;28;20461;-68
2021/08/28 11:52:00;;;;;;;1.73;1.00;;;;;;;;;;5114586;28;20023;-66
2021/08/28 11:54:26;;;;;;;1.50;1.05;;;;;;;;;;5114603;28;20110;-68
2021/08/28 11:56:58;;;;;;;1.65;1.10;;;;;;;;;;5114775;28;20019;-67
2021/08/28 11:59:34;;;;;;;1.10;1.00;;;;;;;;;;5114494;28;20020;-68
2021/08/28 12:02:00;;;;;;;1.20;0.90;;;;;;;;;;5114578;28;20023;-66
2021/08/28 12:04:26;;;;;;;1.90;1.02;;;;;;;;;;5114674;28;20032;-67
2021/08/28 12:06:56;;;;;;;1.33;1.08;;;;;;;;;;5114652;28;20045;-67
2021/08/28 12:09:23;;;;;;;2.00;1.17;;;;;;;;;;5114801;28;20106;-65
2021/08/28 12:11:50;;;;;;;2.10;1.10;;;;;;;;;;5114380;28;20020;-67
2021/08/28 12:14:17;;;;;;;1.13;0.82;;;;;;;;;;5113968;28;20527;-70
2021/08/28 12:16:44;;;;;;;1.50;1.10;;;;;;;;;;5096160;28;20019;-66
2021/08/28 12:19:17;;;;;;;1.33;1.02;;;;;;;;;;5114391;28;20476;-66
2021/08/28 12:21:45;;;;;;;1.25;0.95;;;;;;;;;;5114156;28;20076;-65
2021/08/28 12:24:11;;;;;;;1.70;1.13;;;;;;;;;;5114260;28;20031;-68
2021/08/28 12:26:37;;;;;;;2.33;1.30;;;;;;;;;;5114197;28;20027;-67
2021/08/28 12:29:03;;;;;;;3.08;1.02;;;;;;;;;;5114167;28;20480;-65
2021/08/28 12:31:31;;;;;;;2.30;1.20;;;;;;;;;;5114401;28;20028;-66
2021/08/28 12:34:01;;;;;;;2.92;1.27;;;;;;;;;;5114084;28;20031;-67
2021/08/28 12:36:28;;;;;;;1.17;0.90;;;;;;;;;;5113930;28;20024;-66
2021/08/28 12:39:01;;;;;;;1.90;0.98;;;;;;;;;;5114396;28;20363;-66
2021/08/28 12:41:27;;;;;;;1.88;0.80;;;;;;;;;;5114278;28;20030;-65
2021/08/28 12:43:53;;;;;;;1.33;1.08;;;;;;;;;;5114060;28;20076;-65
2021/08/28 12:46:19;;;;;;;1.80;0.98;;;;;;;;;;5114113;28;20073;-66
2021/08/28 12:49:04;;;;;;;1.33;0.95;;;;;;;;;;5113501;28;20024;-65
2021/08/28 12:51:30;;;;;;;1.15;0.80;;;;;;;;;;5114019;28;20051;-65
2021/08/28 12:53:56;;;;;;;3.28;0.98;;;;;;;;;;5113786;28;20122;-65
2021/08/28 12:56:22;;;;;;;1.35;1.05;;;;;;;;;;5113632;28;20058;-65
2021/08/28 12:58:48;;;;;;;2.10;1.10;;;;;;;;;;5113728;28;20051;-67
2021/08/28 13:01:14;;;;;;;1.30;1.00;;;;;;;;;;5113592;28;20024;-64
2021/08/28 13:03:47;;;;;;;1.67;0.85;;;;;;;;;;5113882;28;20371;-65
2021/08/28 13:06:20;;;;;;;1.48;0.80;;;;;;;;;;5113817;28;20024;-65
2021/08/28 13:08:46;;;;;;;3.15;1.50;;;;;;;;;;5113942;28;20023;-65
2021/08/28 13:11:20;;;;;;;6.45;1.10;;;;;;;;;;5113475;28;20483;-66
2021/08/28 13:13:52;;;;;;;1.10;0.93;;;;;;;;;;5113508;28;20052;-65
2021/08/28 13:16:19;;;;;;;2.78;1.08;;;;;;;;;;5113788;28;20444;-65
2021/08/28 13:18:45;;;;;;;4.10;1.00;;;;;;;;;;5113544;28;20089;-66
2021/08/28 13:21:11;;;;;;;3.95;0.98;;;;;;;;;;5113375;28;20388;-66
2021/08/28 13:23:37;;;;;;;3.47;1.77;;;;;;;;;;5113581;28;20031;-66
2021/08/28 13:26:06;;;;;;;1.70;0.98;;;;;;;;;;5113648;28;20020;-65
2021/08/28 13:28:53;;;;;;;4.38;1.10;;;;;;;;;;5113635;28;20034;-66
2021/08/28 13:31:23;;;;;;;1.75;0.90;;;;;;;;;;5113486;28;20102;-65
2021/08/28 13:34:02;;;;;;;1.00;0.90;;;;;;;;;;5113423;28;20115;-66
2021/08/28 13:36:29;;;;;;;1.23;0.98;;;;;;;;;;5113544;28;20371;-66
2021/08/28 13:38:55;;;;;;;2.33;0.90;;;;;;;;;;5113591;28;20034;-66
2021/08/28 13:41:21;;;;;;;1.35;1.13;;;;;;;;;;5113264;28;20016;-66
2021/08/28 13:43:47;;;;;;;2.50;0.88;;;;;;;;;;5113260;28;20023;-66
2021/08/28 13:46:13;;;;;;;1.80;0.80;;;;;;;;;;5113599;28;20012;-66
2021/08/28 13:48:42;;;;;;;2.35;1.23;;;;;;;;;;5113281;28;20429;-66
2021/08/28 13:51:08;;;;;;;1.90;0.90;;;;;;;;;;5113303;28;20051;-66
2021/08/28 13:53:34;;;;;;;1.17;0.80;;;;;;;;;;5113056;28;20038;-67
2021/08/28 13:56:00;;;;;;;1.23;1.05;;;;;;;;;;5113269;28;20380;-65
2021/08/28 13:58:26;;;;;;;3.40;1.13;;;;;;;;;;5113104;28;20032;-66
2021/08/28 14:00:52;;;;;;;1.23;0.90;;;;;;;;;;5116063;28;20031;-67
2021/08/28 14:03:18;;;;;;;2.97;1.13;;;;;;;;;;5116961;28;20039;-67
2021/08/28 14:05:44;;;;;;;6.40;1.27;;;;;;;;;;5116924;28;20341;-66
2021/08/28 14:08:11;;;;;;;2.40;0.90;;;;;;;;;;5098610;28;20031;-67
2021/08/28 14:10:37;;;;;;;1.80;1.08;;;;;;;;;;5116807;28;20418;-65
2021/08/28 14:13:03;;;;;;;2.63;1.20;;;;;;;;;;5116403;28;20055;-66
2021/08/28 14:15:29;;;;;;;2.28;1.15;;;;;;;;;;5117097;28;20046;-66
2021/08/28 14:17:55;;;;;;;1.73;1.08;;;;;;;;;;5116771;28;20107;-65
2021/08/28 14:20:21;;;;;;;1.23;1.00;;;;;;;;;;5116728;28;20463;-66
2021/08/28 14:22:48;;;;;;;1.42;1.00;;;;;;;;;;5116630;28;20031;-70
2021/08/28 14:25:16;;;;;;;2.35;1.20;;;;;;;;;;5116585;28;20102;-66
2021/08/28 14:27:43;;;;;;;2.25;1.20;;;;;;;;;;5116932;28;20047;-69
2021/08/28 14:30:09;;;;;;;1.63;1.20;;;;;;;;;;5116447;28;20058;-67
2021/08/28 14:32:36;;;;;;;1.85;1.10;;;;;;;;;;5116201;28;20416;-66
2021/08/28 14:35:02;;;;;;;2.00;1.10;;;;;;;;;;5116482;28;20103;-67
2021/08/28 14:37:28;;;;;;;2.22;0.93;;;;;;;;;;5116537;28;20031;-67
2021/08/28 14:39:54;;;;;;;1.10;0.93;;;;;;;;;;5116202;28;20016;-67
2021/08/28 14:42:20;;;;;;;1.55;0.93;;;;;;;;;;5116124;28;20110;-69
2021/08/28 14:44:46;;;;;;;1.13;0.80;;;;;;;;;;5116328;28;20028;-67
2021/08/28 14:47:12;;;;;;;2.50;0.80;;;;;;;;;;5116345;28;20410;-66
2021/08/28 14:49:38;;;;;;;2.03;0.80;;;;;;;;;;5116157;28;20383;-67
2021/08/28 14:52:05;;;;;;;1.58;0.95;;;;;;;;;;5115935;28;20494;-68
2021/08/28 14:54:31;;;;;;;2.88;1.00;;;;;;;;;;5116187;28;20043;-67
2021/08/28 14:56:57;;;;;;;1.08;0.80;;;;;;;;;;5115862;28;20023;-68
2021/08/28 14:59:23;;;;;;;1.73;0.90;;;;;;;;;;5116174;28;20065;-67
2021/08/28 15:01:49;;;;;;;2.67;0.90;;;;;;;;;;5115808;28;20483;-67
2021/08/28 15:04:15;;;;;;;2.95;0.90;;;;;;;;;;5115949;28;20114;-65
2021/08/28 15:06:41;;;;;;;1.20;0.93;;;;;;;;;;5115792;28;20027;-67
2021/08/28 15:09:07;;;;;;;1.95;0.85;;;;;;;;;;5115776;28;20027;-67
2021/08/28 15:11:33;;;;;;;1.30;0.90;;;;;;;;;;5115544;28;20023;-66
2021/08/28 15:13:59;;;;;;;3.10;0.90;;;;;;;;;;5115376;28;20047;-66
2021/08/28 15:16:26;;;;;;;1.05;0.80;;;;;;;;;;5115699;28;20023;-66
2021/08/28 15:18:52;;;;;;;1.67;0.90;;;;;;;;;;5115762;28;20062;-67
2021/08/28 15:21:18;;;;;;;2.10;1.00;;;;;;;;;;5115550;28;20472;-68
2021/08/28 15:23:44;;;;;;;2.65;0.93;;;;;;;;;;5115689;28;20032;-66
2021/08/28 15:26:10;;;;;;;1.23;0.90;;;;;;;;;;5115622;28;20486;-66
2021/08/28 15:28:36;;;;;;;2.35;1.02;;;;;;;;;;5115191;28;20029;-66
2021/08/28 15:31:03;;;;;;;1.88;0.90;;;;;;;;;;5115316;28;20016;-66
2021/08/28 15:33:30;;;;;;;1.55;1.05;;;;;;;;;;5115258;28;20392;-66
2021/08/28 15:35:56;;;;;;;2.63;1.20;;;;;;;;;;5115101;28;20016;-66
2021/08/28 15:38:23;;;;;;;2.85;1.00;;;;;;;;;;5115111;28;20059;-66
2021/08/28 15:40:50;;;;;;;3.55;1.17;;;;;;;;;;5115255;28;20026;-65
2021/08/28 15:43:16;;;;;;;2.40;1.23;;;;;;;;;;5115221;28;20054;-66